Flight Track Log - Related Links

Times and Time Zones

All times are in EDT time to prevent confusion due to time zone crossing. See the SWA350 flight status page for this flight to view local times or setup timezone preferences in your user account.

Time Position Orientation Groundspeed Altitude Reporting Facility
EDT Latitude Longitude Course Direction KTS MPH feet Rate Location/Type
Thu 06:43:00 PM 32.7667 -117.2667 297° West 232 267 3,100  Level Southern California TRACON
Thu 06:44:13 PM 32.8192 -117.3447 309° West 258 297 7,400 3,600 Climbing Los Angeles Center
Thu 06:45:15 PM 32.8633 -117.4189 305° West 270 311 11,200 2,806 Climbing Los Angeles Center
Thu 06:46:17 PM 32.9242 -117.5081 309° West 342 394 13,200 2,806 Climbing Los Angeles Center
Thu 06:47:19 PM 33.0303 -117.6014 324° Northwest 395 455 17,000 3,290 Climbing Los Angeles Center
Thu 06:48:21 PM 33.0997 -117.7083 308° West 407 468 20,000 2,710 Climbing Los Angeles Center
Thu 06:49:23 PM 33.1733 -117.8153 309° West 414 476 22,600 2,371 Climbing Los Angeles Center
Thu 06:50:25 PM 33.2506 -117.9244 310° West 426 490 24,900 2,064 Climbing Los Angeles Center
Thu 06:51:28 PM 33.3278 -118.0364 310° West 433 498 26,900 2,352 Climbing Los Angeles Center
Thu 06:52:30 PM 33.4056 -118.1481 310° West 436 502 29,800 2,855 Climbing Los Angeles Center
Thu 06:53:32 PM 33.4928 -118.2756 309° West 416 479 32,800 2,419 Climbing Los Angeles Center
Thu 06:54:34 PM 33.5642 -118.3800 309° West 405 466 34,800 1,839 Climbing Los Angeles Center
Thu 06:55:36 PM 33.6372 -118.4856 310° West 404 465 36,600 1,548 Climbing Los Angeles Center
Thu 06:56:38 PM 33.7086 -118.5892 310° West 398 458 38,000 1,113 Climbing Los Angeles Center
Thu 06:57:40 PM 33.7792 -118.6903 310° West 393 452 38,900 774 Climbing Los Angeles Center
Thu 06:58:42 PM 33.8486 -118.7928 309° West 393 452 39,600 528 Climbing Los Angeles Center
Thu 06:59:45 PM 33.9192 -118.8953 310° West 397 457 40,000 192 Climbing Los Angeles Center
Thu 07:00:47 PM 34.0025 -119.0194 309° West 397 457 40,000  Level Los Angeles Center
Thu 07:01:49 PM 34.0711 -119.1206 309° West 390 449 40,000  Level Los Angeles Center
Thu 07:02:51 PM 34.1400 -119.2231 309° West 392 451 40,000  Level Los Angeles Center
Thu 07:03:54 PM 34.2078 -119.3231 309° West 387 445 40,000  Level Los Angeles Center
Thu 07:04:56 PM 34.2750 -119.4250 309° West 388 447 40,000  Level Los Angeles Center
Thu 07:05:58 PM 34.3425 -119.5250 309° West 385 443 40,000  Level Los Angeles Center
Thu 07:07:00 PM 34.4244 -119.6456 310° West 385 443 40,000  Level Los Angeles Center
Thu 07:08:02 PM 34.4906 -119.7469 308° West 385 443 40,000  Level Los Angeles Center
Thu 07:09:04 PM 34.5761 -119.8294 322° Northwest 397 457 40,000  Level Los Angeles Center
Thu 07:10:06 PM 34.6758 -119.9092 327° Northwest 396 456 40,000  Level Los Angeles Center
Thu 07:11:08 PM 34.7658 -119.9833 326° Northwest 393 452 40,000  Level Los Angeles Center
Thu 07:12:10 PM 34.8553 -120.0575 326° Northwest 391 450 40,000  Level Los Angeles Center
Thu 07:13:13 PM 34.9556 -120.1406 326° Northwest 391 450 40,000  Level Los Angeles Center
Thu 07:14:15 PM 35.0453 -120.2147 326° Northwest 392 451 40,000  Level Los Angeles Center
Thu 07:15:17 PM 35.1328 -120.2883 325° Northwest 388 447 40,000  Level Los Angeles Center
Thu 07:16:19 PM 35.2211 -120.3622 326° Northwest 387 445 40,000  Level Los Angeles Center
Thu 07:17:21 PM 35.3094 -120.4364 326° Northwest 387 445 40,000  Level Los Angeles Center
Thu 07:18:25 PM 35.4131 -120.5267 325° Northwest 390 449 40,000  Level Oakland Center
Thu 07:19:27 PM 35.5039 -120.6028 326° Northwest 390 449 40,000  Level Oakland Center
Thu 07:20:28 PM 35.5933 -120.6794 325° Northwest 388 447 40,000 -293 Level Oakland Center
Thu 07:21:30 PM 35.6833 -120.7558 325° Northwest 391 450 39,400 -1,463 Descending Oakland Center
Thu 07:22:31 PM 35.7708 -120.8303 325° Northwest 385 443 37,000 -2,341 Descending Oakland Center
Thu 07:23:33 PM 35.8586 -120.9053 325° Northwest 383 441 34,600 -2,439 Descending Oakland Center
Thu 07:24:34 PM 35.9639 -120.9958 325° Northwest 384 442 32,000 -2,293 Descending Oakland Center
Thu 07:25:36 PM 36.0511 -121.0708 325° Northwest 383 441 29,900 -2,049 Descending Oakland Center
Thu 07:26:37 PM 36.1367 -121.1453 325° Northwest 377 434 27,800 -2,000 Descending Oakland Center
Thu 07:27:39 PM 36.2197 -121.2172 325° Northwest 367 422 25,800 -1,951 Descending Oakland Center
Thu 07:28:40 PM 36.3003 -121.2858 326° Northwest 355 409 23,800 -1,854 Descending Oakland Center
Thu 07:29:42 PM 36.3775 -121.3522 325° Northwest 342 394 22,000 -1,805 Descending Oakland Center
Thu 07:30:43 PM 36.4503 -121.4189 324° Northwest 329 379 20,100 -1,756 Descending Oakland Center
Thu 07:31:45 PM 36.5233 -121.4800 326° Northwest 318 366 18,400 -2,195 Descending Oakland Center
Thu 07:32:46 PM 36.6367 -121.5186 345° North 351 404 15,600 -2,634 Descending Oakland Center
Thu 07:33:48 PM 36.7331 -121.5544 343° North 361 415 13,000 -2,146 Descending Oakland Center
Thu 07:34:49 PM 36.8214 -121.5858 344° North 348 400 11,200 -1,659 Descending Oakland Center
Thu 07:35:51 PM 36.9000 -121.6147 344° North 304 350 9,600 -1,512 Descending Oakland Center
Thu 07:36:52 PM 36.9728 -121.6417 344° North 277 319 8,100 -1,463 Descending Oakland Center
Thu 07:37:54 PM 37.0425 -121.6669 344° North 266 306 6,600 -1,500 Descending Oakland Center
Thu 07:38:56 PM 37.1128 -121.6933 343° North 262 302 5,000 -829 Descending Oakland Center
Thu 07:39:57 PM 37.1894 -121.7328 338° Northwest 257 296 4,900 -585 Descending Oakland Center
Thu 07:40:59 PM 37.2319 -121.7875 314° West 233 268 3,800 -1,220 Descending Oakland Center
Thu 07:42:00 PM 37.2769 -121.8325 321° Northwest 217 250 2,400 -1,122 Descending Oakland Center
Thu 07:43:02 PM 37.3183 -121.8794 318° Northwest 208 239 1,500 -968 Descending Oakland Center
Thu 07:44:04 PM 37.3456 -121.9097 319° Northwest 159 183 400 -1,065 Descending Oakland Center
Thu 07:46:00 PM 37.3500 -121.9167 North  Level FlightAware Approximate
Thu 07:53:00 PM 37.3627 -121.9291 North  Level Estimated

Login

Don't have an account? Register now (free) for customized features, flight alerts, and more!